メインページ
METAR-TAF:

METAR-TAF

空港 :

マプト国際空港

マプト, モザンビーク

緯度: 25-55S, 経度: 032-34E, 海抜: 39m

現時点の気象観測

当レポートは1時間13分前の23:00(UTC)に作成
西/南西の風 4kt
気温 20°C
湿度 83%
気圧 1021 hPa
視程10km以上
高度2000ftの雲は散在している

METAR: FQMA 122300Z 25004KT 9999 SCT020 20/17 Q1021 NOSIG

時間: 02:13 (00:13 UTC)

予報

当レポートは2時間13分前の22:00(UTC)に作成
予報は13日の 00時(UTC)から 14日の 06時(UTC)まで有効
東/南東の風 6kt
視程10km以上
高度2000ftの雲は散在している
13日の 11時(UTC)から 13日の 13時(UTC)まで徐々に
北/北東の風 8kt
13日の 18時(UTC)から 13日の 20時(UTC)まで徐々に
の風 6kt

TAF: FQMA 122200Z 1300/1406 11006KT 9999 SCT020 TX26/1313Z TN17/1302Z BECMG 1311/1313 02008KT BECMG 1318/1320 08006KT

4,000以上の空港の気象観測と天気予報(METAR報とTAF報)

利用可能な観測所は地図上に黄色い丸と赤い丸で示す。

丸の上にカーソルを重ねると観測所名を参照できる。

次にクリックすると気象観測と天気予報を参照できる。

マップの切り替え:黒色「×」印の緑ボタンをクリックして拡大、「-」印の緑ボタンをクリックして縮小、緑色の三角印をクリックして隣りの地図に切り替え


METAR-TAF: